メインページ
METAR-TAF:

METAR-TAF

空港 :

Rankin Inlet, ヌナブト準州, カナダ

緯度: 62-49N, 経度: 092-07W, 海抜: 31m

現時点の気象観測

当レポートは49分前の03:00(UTC)に作成
西の風 8kt
気温 -32°C
湿度 67%
気圧 1012 hPa
視程: 24.1km
高度2000ftの雲はほとんどない
高度16000ftの雲はほとんどない
氷晶

METAR: CYRT 130300Z 28008KT 15SM IC FEW020 FEW160 M32/M36 A2989 RMK SC1AC1 SLP128

時間: 21:49 (03:49 UTC)

予報

当レポートは4時間11分前の23:38(UTC)に作成
予報は13日の 00時(UTC)から 13日の 12時(UTC)まで有効
西/北西の風 10kt
視程: 10km
晴天
13日の 00時(UTC)から 13日の 12時(UTC)まで一時的に
視程: 6.4km
氷晶, 高い地吹雪

TAF: CYRT 122338Z 1300/1312 30010KT P6SM SKC TEMPO 1300/1312 4SM IC BLSN RMK NXT FCST BY 130600Z

4,000以上の空港の気象観測と天気予報(METAR報とTAF報)

利用可能な観測所は地図上に黄色い丸と赤い丸で示す。

丸の上にカーソルを重ねると観測所名を参照できる。

次にクリックすると気象観測と天気予報を参照できる。

マップの切り替え:黒色「×」印の緑ボタンをクリックして拡大、「-」印の緑ボタンをクリックして縮小、緑色の三角印をクリックして隣りの地図に切り替え


METAR-TAF: